createdAt,value
2018-07-04T00:02:40.052Z,98.80
2018-07-04T00:05:27.000Z,98.90
2018-07-04T00:08:14.015Z,99.00
2018-07-04T00:11:00.894Z,98.50
2018-07-04T00:13:47.681Z,97.90
2018-07-04T00:16:34.746Z,97.60
2018-07-04T00:19:21.404Z,97.40
2018-07-04T00:22:08.352Z,97.10
2018-07-04T00:24:55.480Z,96.90
2018-07-04T00:27:42.350Z,96.50
2018-07-04T00:30:29.248Z,96.50
2018-07-04T00:33:16.223Z,96.50
2018-07-04T00:36:03.108Z,96.50
2018-07-04T00:38:50.224Z,96.50
2018-07-04T00:41:37.169Z,96.70
2018-07-04T00:44:24.543Z,96.80
2018-07-04T00:47:11.589Z,97.00
2018-07-04T00:49:58.524Z,97.00
2018-07-04T00:52:45.520Z,96.90
2018-07-04T00:55:32.724Z,96.60
2018-07-04T00:58:19.718Z,96.50
2018-07-04T01:01:07.036Z,96.60
2018-07-04T01:03:54.026Z,96.90
2018-07-04T01:06:40.925Z,97.00
2018-07-04T01:09:27.838Z,97.20
2018-07-04T01:12:14.710Z,97.60
2018-07-04T01:15:01.572Z,97.80
2018-07-04T01:17:48.721Z,98.00
2018-07-04T01:20:41.213Z,98.20
2018-07-04T01:23:28.226Z,98.10
2018-07-04T01:26:15.266Z,98.20
2018-07-04T01:29:02.349Z,97.90
2018-07-04T01:31:49.305Z,98.00
2018-07-04T01:34:36.265Z,98.30
2018-07-04T01:37:23.248Z,98.30
2018-07-04T01:40:10.357Z,98.30
2018-07-04T01:42:57.347Z,98.40
2018-07-04T01:45:44.360Z,98.60
2018-07-04T01:48:31.373Z,99.00
2018-07-04T01:51:18.348Z,99.10
2018-07-04T01:54:05.301Z,99.30
2018-07-04T01:56:52.184Z,99.50
2018-07-04T01:59:39.136Z,99.80
2018-07-04T02:02:26.045Z,99.90
2018-07-04T02:05:12.928Z,99.90
2018-07-04T02:07:59.985Z,99.90
2018-07-04T02:10:47.093Z,99.90
2018-07-04T02:13:33.856Z,99.80
2018-07-04T02:16:20.777Z,99.70
2018-07-04T02:19:07.707Z,99.60
2018-07-04T02:21:54.804Z,99.80
2018-07-04T02:24:42.437Z,99.90
2018-07-04T02:27:29.403Z,99.90
2018-07-04T02:30:16.391Z,99.90
2018-07-04T02:33:03.361Z,99.90
2018-07-04T02:35:50.527Z,99.90
2018-07-04T02:38:37.377Z,99.90
2018-07-04T02:41:24.742Z,99.90
2018-07-04T02:44:12.116Z,99.90
2018-07-04T02:46:58.954Z,99.90
2018-07-04T02:49:45.919Z,99.90
2018-07-04T02:52:33.092Z,99.90
2018-07-04T02:55:20.124Z,99.90
2018-07-04T02:58:08.156Z,99.90
2018-07-04T03:00:55.237Z,99.90
2018-07-04T03:03:42.128Z,99.90
2018-07-04T03:06:29.254Z,99.90
2018-07-04T03:09:16.170Z,99.90
2018-07-04T03:12:03.019Z,99.90
2018-07-04T03:14:50.130Z,99.90
2018-07-04T03:17:37.157Z,99.90
2018-07-04T03:20:24.039Z,99.90
2018-07-04T03:23:11.219Z,99.90
2018-07-04T03:25:58.473Z,99.90
2018-07-04T03:28:45.502Z,99.90
2018-07-04T03:31:32.245Z,99.90
2018-07-04T03:34:19.282Z,99.90
2018-07-04T03:37:06.299Z,99.90
2018-07-04T03:39:53.369Z,99.90
2018-07-04T03:42:40.359Z,99.90
2018-07-04T03:45:27.401Z,99.90
2018-07-04T03:48:14.458Z,99.90
2018-07-04T03:51:01.496Z,99.90
2018-07-04T03:53:48.289Z,99.90
2018-07-04T03:56:35.478Z,99.90
2018-07-04T03:59:22.463Z,99.90
2018-07-04T04:02:09.437Z,99.90
2018-07-04T04:04:56.261Z,99.90
2018-07-04T04:07:43.250Z,99.90
2018-07-04T04:10:30.224Z,99.90
2018-07-04T04:13:17.585Z,99.90
2018-07-04T04:16:04.452Z,99.90
2018-07-04T04:18:51.626Z,99.90
2018-07-04T04:21:38.639Z,99.60
2018-07-04T04:24:25.541Z,99.20
2018-07-04T04:27:12.481Z,98.70
2018-07-04T04:29:59.300Z,98.10
2018-07-04T04:32:46.520Z,97.00
2018-07-04T04:35:33.531Z,96.50
2018-07-04T04:38:20.432Z,95.90
2018-07-04T04:41:07.433Z,94.90
2018-07-04T04:43:54.373Z,93.90
2018-07-04T04:46:41.380Z,93.70
2018-07-04T04:49:28.323Z,93.50
2018-07-04T04:52:15.309Z,93.90
2018-07-04T04:55:02.156Z,93.90
2018-07-04T04:57:49.109Z,93.90
2018-07-04T05:00:36.182Z,94.60
2018-07-04T05:03:23.308Z,94.70
2018-07-04T05:06:10.556Z,94.10
2018-07-04T05:08:57.679Z,93.50
2018-07-04T05:11:44.692Z,93.20
2018-07-04T05:14:31.765Z,93.50
2018-07-04T05:17:18.799Z,93.40
2018-07-04T05:20:05.704Z,93.30
2018-07-04T05:22:52.712Z,93.10
2018-07-04T05:25:39.572Z,93.10
2018-07-04T05:28:26.465Z,93.00
2018-07-04T05:31:13.216Z,93.00
2018-07-04T05:34:00.276Z,92.80
2018-07-04T05:36:47.213Z,92.00
2018-07-04T05:39:34.284Z,91.10
2018-07-04T05:42:21.266Z,90.80
2018-07-04T05:45:08.260Z,90.70
2018-07-04T05:47:55.318Z,90.30
2018-07-04T05:50:42.314Z,89.40
2018-07-04T05:53:29.192Z,89.40
2018-07-04T05:56:16.173Z,88.50
2018-07-04T05:59:03.148Z,86.50
2018-07-04T06:01:50.128Z,81.90
2018-07-04T06:04:37.080Z,77.40
2018-07-04T06:07:24.124Z,74.80
2018-07-04T06:10:11.336Z,72.80
2018-07-04T06:12:58.436Z,71.20
2018-07-04T06:15:45.456Z,68.00
2018-07-04T06:18:32.468Z,63.90
2018-07-04T06:21:19.372Z,64.40
2018-07-04T06:24:06.484Z,63.60
2018-07-04T06:26:53.549Z,61.00
2018-07-04T06:29:40.717Z,59.30
2018-07-04T06:32:27.898Z,57.40
2018-07-04T06:35:14.776Z,54.50
2018-07-04T06:37:43.399Z,55.20
2018-07-04T06:40:11.779Z,54.40
2018-07-04T06:42:40.160Z,54.60
2018-07-04T06:45:08.556Z,54.70
2018-07-04T06:47:36.953Z,54.00
2018-07-04T06:50:05.319Z,56.20
2018-07-04T06:52:33.690Z,58.40
2018-07-04T06:55:02.076Z,59.80
2018-07-04T06:57:30.452Z,61.60
2018-07-04T06:59:58.833Z,60.60
2018-07-04T07:02:27.199Z,63.00
2018-07-04T07:05:14.366Z,60.80
2018-07-04T07:08:01.488Z,60.80
2018-07-04T07:10:48.388Z,58.80
2018-07-04T07:13:35.147Z,58.30
2018-07-04T07:16:22.224Z,58.30
2018-07-04T07:19:09.182Z,58.90
2018-07-04T07:21:56.208Z,56.20
2018-07-04T07:24:43.156Z,55.20
2018-07-04T07:27:30.109Z,56.00
2018-07-04T07:30:16.992Z,55.70
2018-07-04T07:33:04.017Z,54.70
2018-07-04T07:35:51.116Z,54.10
2018-07-04T07:38:38.081Z,52.50
2018-07-04T07:41:24.892Z,52.60
2018-07-04T07:46:39.300Z,52.60
2018-07-04T07:49:26.401Z,54.60
2018-07-04T07:52:13.488Z,54.70
2018-07-04T07:55:00.512Z,53.40
2018-07-04T07:57:47.656Z,55.50
2018-07-04T08:00:35.258Z,53.00
2018-07-04T08:03:22.181Z,53.10
2018-07-04T08:06:09.076Z,53.50
2018-07-04T08:11:37.168Z,53.10
2018-07-04T08:14:24.308Z,52.30
2018-07-04T08:17:11.480Z,53.60
2018-07-04T08:22:39.769Z,51.70
2018-07-04T08:25:26.680Z,53.20
2018-07-04T08:28:13.720Z,54.40
2018-07-04T08:31:00.800Z,51.00
2018-07-04T08:33:47.976Z,52.00
2018-07-04T08:36:35.025Z,52.90
2018-07-04T08:39:22.014Z,53.00
2018-07-04T08:42:08.945Z,52.50
2018-07-04T08:44:55.752Z,49.60
2018-07-04T08:47:42.820Z,49.50
2018-07-04T08:55:51.668Z,50.30
2018-07-04T08:58:38.636Z,52.40
2018-07-04T09:01:25.929Z,49.20
2018-07-04T09:04:12.988Z,46.30
2018-07-04T09:07:00.136Z,46.00
2018-07-04T09:09:47.249Z,46.60
2018-07-04T09:12:34.408Z,47.50
2018-07-04T09:15:21.643Z,45.60
2018-07-04T09:18:08.672Z,46.40
2018-07-04T09:20:55.625Z,45.80
2018-07-04T09:23:42.704Z,45.80
2018-07-04T09:26:29.796Z,47.10
2018-07-04T09:29:16.812Z,46.00
2018-07-04T09:32:03.911Z,46.00
2018-07-04T09:34:51.037Z,47.60
2018-07-04T09:37:38.097Z,47.70
2018-07-04T09:40:25.104Z,45.90
2018-07-04T09:43:12.329Z,45.70
2018-07-04T09:45:59.612Z,45.00
2018-07-04T09:48:46.480Z,45.60
2018-07-04T09:51:33.540Z,47.60
2018-07-04T09:54:20.436Z,50.70
2018-07-04T09:57:07.592Z,49.10
2018-07-04T09:59:54.440Z,46.90
2018-07-04T10:02:41.277Z,46.40
2018-07-04T10:05:28.149Z,46.80
2018-07-04T10:08:15.285Z,47.60
2018-07-04T10:11:02.480Z,46.50
2018-07-04T10:13:49.548Z,47.90
2018-07-04T10:16:36.656Z,48.00
2018-07-04T10:19:23.801Z,43.50
2018-07-04T10:22:10.968Z,43.50
2018-07-04T10:24:58.060Z,47.30
2018-07-04T10:27:45.100Z,44.80
2018-07-04T10:33:16.487Z,41.10
2018-07-04T10:36:03.625Z,42.80
2018-07-04T10:38:50.589Z,46.30
2018-07-04T10:41:37.552Z,48.00
2018-07-04T10:44:24.772Z,48.20
2018-07-04T10:47:11.689Z,48.80
2018-07-04T10:49:58.842Z,47.20
2018-07-04T10:55:26.870Z,44.70
2018-07-04T10:58:14.029Z,48.20
2018-07-04T11:01:00.936Z,47.20
2018-07-04T11:03:47.873Z,49.20
2018-07-04T11:06:34.968Z,44.00
2018-07-04T11:09:21.932Z,43.10
2018-07-04T11:12:08.950Z,41.40
2018-07-04T11:14:56.212Z,43.60
2018-07-04T11:17:43.181Z,43.20
2018-07-04T11:20:30.164Z,42.60
2018-07-04T11:23:17.364Z,41.00
2018-07-04T11:26:04.428Z,41.30
2018-07-04T11:28:51.521Z,42.10
2018-07-04T11:31:38.733Z,43.80
2018-07-04T11:34:25.627Z,41.30
2018-07-04T11:37:12.660Z,42.60
2018-07-04T11:39:59.732Z,40.30
2018-07-04T11:42:46.724Z,41.90
2018-07-04T11:45:33.793Z,38.40
2018-07-04T11:48:02.188Z,39.30
2018-07-04T11:50:31.025Z,37.90
2018-07-04T11:52:59.390Z,40.70
2018-07-04T11:55:27.796Z,40.10
2018-07-04T11:57:56.207Z,37.50
2018-07-04T12:00:24.600Z,38.10
2018-07-04T12:02:53.016Z,37.60
2018-07-04T12:05:40.041Z,38.00
2018-07-04T12:08:08.409Z,37.90
2018-07-04T12:10:36.780Z,39.60
2018-07-04T12:13:05.173Z,42.90
2018-07-04T12:15:33.540Z,40.70
2018-07-04T12:18:01.912Z,41.20
2018-07-04T12:20:30.324Z,42.00
2018-07-04T12:22:58.690Z,41.70
2018-07-04T12:25:27.060Z,40.90
2018-07-04T12:27:55.697Z,39.00
2018-07-04T12:30:24.072Z,42.70
2018-07-04T12:32:52.441Z,40.50
2018-07-04T12:35:20.986Z,39.10
2018-07-04T12:40:17.899Z,38.10
2018-07-04T12:42:46.308Z,39.10
2018-07-04T12:45:14.720Z,38.30
2018-07-04T12:47:43.088Z,38.70
2018-07-04T12:50:26.416Z,38.70
2018-07-04T12:52:55.117Z,40.00
2018-07-04T12:55:43.751Z,41.80
2018-07-04T12:58:30.842Z,44.20
2018-07-04T13:01:17.716Z,43.10
2018-07-04T13:04:04.752Z,41.60
2018-07-04T13:06:51.816Z,41.90
2018-07-04T13:09:38.719Z,42.10
2018-07-04T13:12:25.578Z,41.80
2018-07-04T13:15:12.740Z,40.70
2018-07-04T13:18:00.101Z,41.10
2018-07-04T13:20:47.303Z,41.20
2018-07-04T13:23:34.333Z,40.90
2018-07-04T13:26:21.232Z,41.10
2018-07-04T13:29:08.308Z,41.00
2018-07-04T13:31:55.481Z,41.00
2018-07-04T13:34:42.331Z,43.30
2018-07-04T13:37:29.384Z,41.50
2018-07-04T13:40:16.559Z,42.90
2018-07-04T13:43:03.555Z,42.60
2018-07-04T13:45:50.527Z,42.30
2018-07-04T13:48:37.589Z,41.20
2018-07-04T13:51:24.676Z,40.90
2018-07-04T13:54:11.758Z,39.70
2018-07-04T13:56:58.908Z,40.00
2018-07-04T13:59:45.708Z,38.60
2018-07-04T14:02:32.644Z,37.50
2018-07-04T14:05:19.941Z,37.50
2018-07-04T14:08:06.885Z,39.10
2018-07-04T14:10:53.948Z,38.10
2018-07-04T14:13:41.068Z,38.50
2018-07-04T14:16:28.216Z,39.70
2018-07-04T14:19:15.056Z,38.70
2018-07-04T14:22:01.904Z,40.60
2018-07-04T14:24:49.144Z,41.40
2018-07-04T14:27:36.253Z,43.30
2018-07-04T14:30:23.355Z,42.60
2018-07-04T14:33:11.026Z,44.20
2018-07-04T14:35:58.405Z,42.40
2018-07-04T14:38:45.414Z,41.00
2018-07-04T14:41:32.341Z,41.50
2018-07-04T14:44:19.292Z,41.30
2018-07-04T14:47:06.320Z,42.30
2018-07-04T14:49:53.643Z,41.20
2018-07-04T14:52:40.630Z,41.00
2018-07-04T14:55:27.925Z,41.60
2018-07-04T14:58:14.930Z,42.30
2018-07-04T15:01:02.003Z,43.10
2018-07-04T15:03:48.948Z,43.00
2018-07-04T15:06:36.820Z,42.30
2018-07-04T15:09:24.060Z,44.00
2018-07-04T15:12:11.303Z,43.70
2018-07-04T15:14:58.539Z,44.50
2018-07-04T15:17:45.483Z,40.80
2018-07-04T15:20:32.454Z,42.70
2018-07-04T15:23:19.669Z,42.80
2018-07-04T15:26:06.438Z,43.20
2018-07-04T15:28:53.415Z,43.30
2018-07-04T15:31:40.332Z,42.60
2018-07-04T15:34:27.973Z,44.30
2018-07-04T15:37:15.084Z,43.20
2018-07-04T15:40:02.288Z,44.60
2018-07-04T15:45:31.227Z,45.10
2018-07-04T15:48:18.280Z,45.60
2018-07-04T15:51:05.456Z,43.40
2018-07-04T15:53:52.652Z,43.70
2018-07-04T15:56:39.808Z,43.70
2018-07-04T15:59:27.021Z,45.10
2018-07-04T16:02:14.440Z,43.50
2018-07-04T16:05:01.489Z,44.90
2018-07-04T16:07:48.726Z,43.90
2018-07-04T16:10:35.865Z,43.90
2018-07-04T16:16:04.653Z,43.20
2018-07-04T16:18:51.804Z,43.70
2018-07-04T16:24:21.840Z,44.10
2018-07-04T16:27:08.941Z,44.90
2018-07-04T16:29:56.040Z,45.80
2018-07-04T16:32:43.068Z,46.50
2018-07-04T16:35:30.209Z,45.40
2018-07-04T16:38:17.173Z,46.50
2018-07-04T16:41:04.141Z,46.90
2018-07-04T16:43:51.276Z,47.20
2018-07-04T16:46:38.316Z,47.10
2018-07-04T16:49:25.321Z,47.90
2018-07-04T16:52:12.296Z,47.80
2018-07-04T16:54:59.429Z,47.80
2018-07-04T16:57:46.556Z,48.30
2018-07-04T17:00:33.528Z,48.20
2018-07-04T17:03:20.548Z,48.60
2018-07-04T17:06:07.514Z,49.20
2018-07-04T17:08:54.544Z,49.10
2018-07-04T17:11:41.545Z,49.50
2018-07-04T17:14:28.674Z,49.80
2018-07-04T17:17:15.615Z,49.60
2018-07-04T17:20:02.888Z,49.30
2018-07-04T17:22:49.776Z,49.50
2018-07-04T17:25:36.809Z,49.90
2018-07-04T17:28:24.284Z,50.50
2018-07-04T17:31:11.317Z,51.50
2018-07-04T17:33:58.420Z,52.00
2018-07-04T17:36:45.555Z,52.30
2018-07-04T17:39:32.516Z,52.60
2018-07-04T17:42:19.632Z,53.30
2018-07-04T17:45:06.684Z,53.40
2018-07-04T17:47:53.696Z,53.70
2018-07-04T17:50:40.849Z,54.20
2018-07-04T17:53:28.035Z,56.00
2018-07-04T17:56:14.992Z,56.90
2018-07-04T17:59:02.016Z,57.30
2018-07-04T18:04:30.164Z,57.90
2018-07-04T18:07:17.220Z,59.10
2018-07-04T18:10:04.179Z,59.60
2018-07-04T18:12:51.216Z,61.40
2018-07-04T18:15:38.352Z,63.30
2018-07-04T18:18:25.306Z,65.60
2018-07-04T18:21:17.527Z,67.60
2018-07-04T18:24:05.635Z,69.30
2018-07-04T18:26:52.615Z,71.50
2018-07-04T18:29:39.668Z,72.20
2018-07-04T18:32:26.783Z,73.10
2018-07-04T18:35:13.861Z,73.80
2018-07-04T18:38:00.904Z,74.00
2018-07-04T18:40:48.025Z,74.60
2018-07-04T18:43:35.146Z,75.20
2018-07-04T18:46:22.044Z,75.00
2018-07-04T18:49:09.040Z,76.10
2018-07-04T18:51:55.967Z,76.70
2018-07-04T18:54:42.896Z,76.40
2018-07-04T18:57:30.021Z,76.40
2018-07-04T19:00:16.832Z,76.90
2018-07-04T19:03:03.884Z,78.50
2018-07-04T19:05:51.851Z,79.70
2018-07-04T19:08:38.809Z,81.00
2018-07-04T19:11:25.852Z,82.40
2018-07-04T19:14:12.897Z,82.60
2018-07-04T19:16:59.809Z,82.80
2018-07-04T19:19:46.728Z,82.90
2018-07-04T19:22:33.765Z,84.00
2018-07-04T19:25:20.837Z,84.30
2018-07-04T19:28:07.976Z,84.70
2018-07-04T19:30:55.152Z,84.10
2018-07-04T19:33:42.344Z,83.50
2018-07-04T19:36:29.377Z,83.40
2018-07-04T19:39:16.385Z,81.80
2018-07-04T19:42:03.516Z,81.20
2018-07-04T19:44:50.498Z,80.50
2018-07-04T19:50:18.361Z,79.50
2018-07-04T19:53:05.824Z,80.60
2018-07-04T19:55:52.908Z,79.60
2018-07-04T19:58:40.075Z,79.80
2018-07-04T20:01:26.920Z,81.10
2018-07-04T20:04:14.220Z,80.10
2018-07-04T20:07:01.296Z,80.30
2018-07-04T20:09:48.340Z,80.10
2018-07-04T20:12:35.263Z,80.70
2018-07-04T20:15:22.696Z,80.50
2018-07-04T20:18:09.855Z,80.00
2018-07-04T20:20:56.844Z,80.30
2018-07-04T20:23:43.955Z,82.10
2018-07-04T20:26:30.996Z,82.60
2018-07-04T20:29:18.172Z,82.60
2018-07-04T20:32:05.202Z,84.20
2018-07-04T20:34:52.536Z,84.90
2018-07-04T20:37:39.780Z,84.60
2018-07-04T20:40:26.820Z,83.10
2018-07-04T20:43:14.386Z,82.60
2018-07-04T20:46:01.445Z,84.40
2018-07-04T20:48:48.449Z,85.70
2018-07-04T20:51:35.542Z,86.90
2018-07-04T20:54:22.541Z,87.60
2018-07-04T20:57:09.517Z,85.20
2018-07-04T20:59:56.603Z,83.00
2018-07-04T21:02:43.560Z,83.80
2018-07-04T21:05:30.618Z,83.60
2018-07-04T21:08:17.409Z,83.50
2018-07-04T21:11:04.466Z,85.90
2018-07-04T21:13:52.498Z,86.30
2018-07-04T21:16:39.707Z,86.10
2018-07-04T21:19:26.748Z,85.20
2018-07-04T21:22:13.733Z,84.10
2018-07-04T21:25:00.730Z,84.30
2018-07-04T21:27:47.677Z,85.30
2018-07-04T21:30:34.657Z,86.70
2018-07-04T21:33:21.696Z,88.00
2018-07-04T21:36:08.493Z,89.10
2018-07-04T21:38:55.553Z,89.60
2018-07-04T21:41:42.521Z,90.30
2018-07-04T21:44:29.548Z,90.70
2018-07-04T21:47:16.352Z,90.90
2018-07-04T21:50:03.268Z,91.00
2018-07-04T21:52:50.302Z,91.40
2018-07-04T21:55:37.322Z,91.70
2018-07-04T21:58:24.481Z,91.90
2018-07-04T22:01:11.538Z,91.90
2018-07-04T22:03:59.420Z,92.40
2018-07-04T22:06:46.341Z,92.80
2018-07-04T22:09:33.157Z,93.10
2018-07-04T22:12:22.104Z,93.40
2018-07-04T22:15:09.089Z,93.40
2018-07-04T22:17:56.074Z,93.60
2018-07-04T22:20:42.842Z,94.00
2018-07-04T22:23:29.752Z,94.40
2018-07-04T22:26:16.815Z,94.20
2018-07-04T22:29:03.716Z,94.10
2018-07-04T22:31:50.720Z,94.40
2018-07-04T22:34:37.796Z,94.50
2018-07-04T22:37:24.673Z,94.40
2018-07-04T22:40:11.716Z,94.30
2018-07-04T22:42:58.595Z,94.20
2018-07-04T22:45:45.617Z,94.50
2018-07-04T22:48:32.420Z,94.60
2018-07-04T22:51:19.449Z,94.90
2018-07-04T22:54:06.505Z,94.80
2018-07-04T22:56:53.479Z,94.80
2018-07-04T22:59:45.615Z,95.20
2018-07-04T23:02:32.758Z,95.40
2018-07-04T23:05:19.614Z,95.60
2018-07-04T23:08:06.693Z,95.70
2018-07-04T23:10:53.756Z,95.80
2018-07-04T23:13:40.677Z,95.80
2018-07-04T23:16:27.626Z,95.90
2018-07-04T23:19:14.576Z,96.00
2018-07-04T23:22:01.383Z,96.20
2018-07-04T23:24:48.695Z,96.40
2018-07-04T23:27:35.505Z,96.30
2018-07-04T23:30:22.547Z,96.50
2018-07-04T23:33:09.610Z,96.60
2018-07-04T23:35:56.740Z,96.60
2018-07-04T23:38:43.661Z,96.50
2018-07-04T23:41:30.789Z,96.80
2018-07-04T23:44:17.700Z,96.60
2018-07-04T23:47:04.537Z,96.50
2018-07-04T23:49:51.473Z,96.60
2018-07-04T23:52:38.494Z,96.40
2018-07-04T23:58:06.413Z,96.60
